Terminal Aerodrome Forecast
Issued by NWS

Home | Current Version | Previous Version | Text Only | Print | Product List | Glossary Off
Versions: 1 2 3 4 5 6 7 8 9 10 11 12 13 14 15 16 17 18 19

000
FTUS41 KCLE 210500
TAFFDY
TAF
KFDY 210520Z 2106/2206 18006KT P6SM SCT250
     FM211600 23010G18KT P6SM SCT100 BKN200
     FM212300 24012G18KT P6SM BKN040 OVC100
     FM220400 24012KT 5SM -SHRA OVC025=

USA.gov is the U.S. government's official web portal to all federal, state and local government web resources and services.